createdAt,value
2017-10-08T00:00:56.362Z,0
2017-10-08T00:01:56.392Z,0
2017-10-08T00:02:56.395Z,0
2017-10-08T00:03:56.412Z,0
2017-10-08T00:04:56.422Z,0
2017-10-08T00:05:56.446Z,0
2017-10-08T00:06:56.474Z,0
2017-10-08T00:07:56.506Z,0
2017-10-08T00:08:56.504Z,0
2017-10-08T00:09:56.889Z,0
2017-10-08T00:10:56.546Z,0
2017-10-08T00:11:56.870Z,0
2017-10-08T00:12:56.582Z,0
2017-10-08T00:13:56.624Z,0
2017-10-08T00:14:56.618Z,0
2017-10-08T00:15:56.957Z,0
2017-10-08T00:16:56.657Z,0
2017-10-08T00:17:56.986Z,0
2017-10-08T00:18:56.688Z,0
2017-10-08T00:19:56.721Z,0
2017-10-08T00:20:56.728Z,0
2017-10-08T00:21:56.751Z,0
2017-10-08T00:22:56.795Z,0
2017-10-08T00:23:56.779Z,0
2017-10-08T00:24:56.806Z,0
2017-10-08T00:25:56.872Z,0
2017-10-08T00:26:56.847Z,0
2017-10-08T00:27:57.187Z,0
2017-10-08T00:28:57.181Z,0
2017-10-08T00:29:56.907Z,0
2017-10-08T00:30:56.908Z,0
2017-10-08T00:31:56.934Z,0
2017-10-08T00:32:56.951Z,0
2017-10-08T00:33:56.973Z,0
2017-10-08T00:34:56.981Z,0
2017-10-08T00:35:57.016Z,0
2017-10-08T00:36:57.033Z,0
2017-10-08T00:37:57.036Z,0
2017-10-08T00:38:57.055Z,0
2017-10-08T00:39:57.081Z,0
2017-10-08T00:40:57.099Z,0
2017-10-08T00:41:57.117Z,0
2017-10-08T00:42:57.151Z,0
2017-10-08T00:43:57.156Z,0
2017-10-08T00:44:57.173Z,0
2017-10-08T00:45:57.193Z,0
2017-10-08T00:46:57.208Z,0
2017-10-08T00:47:57.226Z,0
2017-10-08T00:48:57.246Z,0
2017-10-08T00:49:57.265Z,0
2017-10-08T00:50:57.286Z,0
2017-10-08T00:51:57.627Z,0
2017-10-08T00:52:57.317Z,0
2017-10-08T00:53:57.656Z,0
2017-10-08T00:54:57.362Z,0
2017-10-08T00:55:57.388Z,0
2017-10-08T00:56:57.394Z,0
2017-10-08T00:57:57.730Z,0
2017-10-08T00:58:57.489Z,0
2017-10-08T00:59:57.454Z,0
2017-10-08T01:00:57.786Z,0
2017-10-08T01:01:57.809Z,0
2017-10-08T01:02:57.815Z,0
2017-10-08T01:03:57.838Z,0
2017-10-08T01:04:57.544Z,0
2017-10-08T01:05:57.563Z,0
2017-10-08T01:06:57.598Z,0
2017-10-08T01:07:57.610Z,0
2017-10-08T01:08:57.617Z,0
2017-10-08T01:09:57.637Z,0
2017-10-08T01:10:57.662Z,0
2017-10-08T01:11:57.994Z,0
2017-10-08T01:12:57.697Z,0
2017-10-08T01:13:57.712Z,0
2017-10-08T01:14:57.738Z,0
2017-10-08T01:15:57.752Z,0
2017-10-08T01:16:58.135Z,0
2017-10-08T01:17:58.118Z,0
2017-10-08T01:18:57.811Z,0
2017-10-08T01:19:57.824Z,0
2017-10-08T01:20:57.848Z,0
2017-10-08T01:21:57.878Z,0
2017-10-08T01:22:57.907Z,0
2017-10-08T01:23:57.907Z,0
2017-10-08T01:24:57.927Z,0
2017-10-08T01:25:57.939Z,0
2017-10-08T01:26:57.980Z,0
2017-10-08T01:27:57.977Z,0
2017-10-08T01:28:58.000Z,0
2017-10-08T01:29:58.022Z,0
2017-10-08T01:30:58.034Z,0
2017-10-08T01:31:59.923Z,0
2017-10-08T01:32:58.066Z,0
2017-10-08T01:33:58.399Z,0
2017-10-08T01:34:58.103Z,0
2017-10-08T01:35:58.127Z,0
2017-10-08T01:36:58.145Z,0
2017-10-08T01:37:58.484Z,0
2017-10-08T01:38:58.181Z,0
2017-10-08T01:39:58.264Z,0
2017-10-08T01:40:58.219Z,0
2017-10-08T01:41:58.252Z,0
2017-10-08T01:42:58.250Z,0
2017-10-08T01:43:58.271Z,0
2017-10-08T01:44:58.295Z,0
2017-10-08T01:45:58.616Z,0
2017-10-08T01:46:58.325Z,0
2017-10-08T01:47:58.343Z,0
2017-10-08T01:48:58.413Z,0
2017-10-08T01:49:58.387Z,0
2017-10-08T01:50:58.398Z,0
2017-10-08T01:51:58.411Z,0
2017-10-08T01:52:58.436Z,0
2017-10-08T01:53:58.447Z,0
2017-10-08T01:54:58.473Z,0
2017-10-08T01:55:58.819Z,0
2017-10-08T01:56:58.509Z,0
2017-10-08T01:57:58.519Z,0
2017-10-08T01:58:58.542Z,0
2017-10-08T01:59:58.567Z,0
2017-10-08T02:00:58.575Z,0
2017-10-08T02:01:58.602Z,0
2017-10-08T02:02:58.610Z,0
2017-10-08T02:03:58.678Z,0
2017-10-08T02:04:58.642Z,0
2017-10-08T02:05:58.688Z,0
2017-10-08T02:06:58.987Z,0
2017-10-08T02:07:58.701Z,0
2017-10-08T02:08:58.719Z,0
2017-10-08T02:09:58.738Z,0
2017-10-08T02:10:58.747Z,0
2017-10-08T02:11:58.771Z,0
2017-10-08T02:12:59.098Z,0
2017-10-08T02:13:58.812Z,0
2017-10-08T02:14:58.826Z,0
2017-10-08T02:15:58.844Z,0
2017-10-08T02:16:58.855Z,0
2017-10-08T02:17:58.872Z,0
2017-10-08T02:18:58.944Z,0
2017-10-08T02:19:58.933Z,0
2017-10-08T02:20:58.938Z,0
2017-10-08T02:21:58.948Z,0
2017-10-08T02:22:58.975Z,0
2017-10-08T02:23:58.978Z,0
2017-10-08T02:24:58.999Z,0
2017-10-08T02:25:59.013Z,0
2017-10-08T02:26:59.031Z,0
2017-10-08T02:27:59.050Z,0
2017-10-08T02:28:59.090Z,0
2017-10-08T02:29:59.081Z,0
2017-10-08T02:30:59.098Z,0
2017-10-08T02:31:59.117Z,0
2017-10-08T02:32:59.135Z,0
2017-10-08T02:33:59.475Z,0
2017-10-08T02:34:59.488Z,0
2017-10-08T02:35:59.190Z,0
2017-10-08T02:36:59.256Z,0
2017-10-08T02:37:59.233Z,0
2017-10-08T02:38:59.243Z,0
2017-10-08T02:39:59.251Z,0
2017-10-08T02:40:59.591Z,0
2017-10-08T02:41:59.607Z,0
2017-10-08T02:42:59.321Z,0
2017-10-08T02:43:59.332Z,0
2017-10-08T02:44:59.655Z,0
2017-10-08T02:45:59.359Z,0
2017-10-08T02:47:00.033Z,0
2017-10-08T02:47:59.404Z,0
2017-10-08T02:48:59.415Z,0
2017-10-08T02:49:59.428Z,0
2017-10-08T02:50:59.774Z,0
2017-10-08T02:51:59.485Z,0
2017-10-08T02:52:59.482Z,0
2017-10-08T02:53:59.505Z,0
2017-10-08T02:54:59.516Z,0
2017-10-08T02:55:59.540Z,0
2017-10-08T02:56:59.567Z,0
2017-10-08T02:57:59.573Z,0
2017-10-08T02:58:59.595Z,0
2017-10-08T02:59:59.605Z,0
2017-10-08T03:00:59.620Z,0
2017-10-08T03:01:59.640Z,0
2017-10-08T03:02:59.664Z,0
2017-10-08T03:03:59.673Z,0
2017-10-08T03:04:59.689Z,0
2017-10-08T03:05:59.720Z,0
2017-10-08T03:06:59.728Z,0
2017-10-08T03:08:00.055Z,0
2017-10-08T03:08:59.811Z,0
2017-10-08T03:09:59.776Z,0
2017-10-08T03:10:59.809Z,0
2017-10-08T03:11:59.813Z,0
2017-10-08T03:12:59.824Z,0
2017-10-08T03:13:59.851Z,0
2017-10-08T03:15:00.183Z,0
2017-10-08T03:16:00.197Z,0
2017-10-08T03:16:59.911Z,0
2017-10-08T03:18:00.232Z,0
2017-10-08T03:18:59.930Z,0
2017-10-08T03:20:00.271Z,0
2017-10-08T03:20:59.963Z,0
2017-10-08T03:21:59.982Z,0
2017-10-08T03:22:59.994Z,0
2017-10-08T03:24:00.063Z,0
2017-10-08T03:25:00.032Z,0
2017-10-08T03:26:00.053Z,0
2017-10-08T03:27:00.374Z,0
2017-10-08T03:28:00.086Z,0
2017-10-08T03:29:00.096Z,0
2017-10-08T03:30:00.114Z,0
2017-10-08T03:31:00.128Z,0
2017-10-08T03:32:00.144Z,0
2017-10-08T03:33:00.167Z,0
2017-10-08T03:34:00.197Z,0
2017-10-08T03:35:00.190Z,0
2017-10-08T03:36:00.208Z,0
2017-10-08T03:37:00.238Z,0
2017-10-08T03:38:00.559Z,0
2017-10-08T03:39:00.410Z,0
2017-10-08T03:40:00.278Z,0
2017-10-08T03:41:00.292Z,0
2017-10-08T03:42:00.315Z,0
2017-10-08T03:43:00.327Z,0
2017-10-08T03:44:00.346Z,0
2017-10-08T03:45:00.353Z,0
2017-10-08T03:46:00.374Z,0
2017-10-08T03:47:00.389Z,0
2017-10-08T03:48:00.414Z,0
2017-10-08T03:49:00.431Z,0
2017-10-08T03:50:00.445Z,0
2017-10-08T03:51:00.473Z,0
2017-10-08T03:52:00.481Z,0
2017-10-08T03:53:00.798Z,0
2017-10-08T03:54:00.556Z,0
2017-10-08T03:55:00.529Z,0
2017-10-08T03:56:00.556Z,0
2017-10-08T03:57:00.879Z,0
2017-10-08T03:58:00.887Z,0
2017-10-08T03:59:00.586Z,0
2017-10-08T04:00:00.603Z,0
2017-10-08T04:01:00.619Z,0
2017-10-08T04:02:00.648Z,0
2017-10-08T04:03:00.653Z,0
2017-10-08T04:04:00.667Z,0
2017-10-08T04:05:00.999Z,0
2017-10-08T04:06:00.705Z,0
2017-10-08T04:07:00.720Z,0
2017-10-08T04:08:00.737Z,0
2017-10-08T04:09:01.117Z,0
2017-10-08T04:10:01.082Z,0
2017-10-08T04:11:00.786Z,0
2017-10-08T04:12:00.807Z,0
2017-10-08T04:13:00.830Z,0
2017-10-08T04:14:01.150Z,0
2017-10-08T04:15:00.858Z,0
2017-10-08T04:16:00.867Z,0
2017-10-08T04:17:00.890Z,0
2017-10-08T04:18:00.903Z,0
2017-10-08T04:19:00.922Z,0
2017-10-08T04:20:00.933Z,0
2017-10-08T04:21:00.956Z,0
2017-10-08T04:22:01.305Z,0
2017-10-08T04:23:00.987Z,0
2017-10-08T04:24:01.055Z,0
2017-10-08T04:25:01.023Z,0
2017-10-08T04:26:01.046Z,0
2017-10-08T04:27:01.061Z,0
2017-10-08T04:28:01.077Z,0
2017-10-08T04:29:01.094Z,0
2017-10-08T04:30:01.103Z,0
2017-10-08T04:31:01.117Z,0
2017-10-08T04:32:01.144Z,0
2017-10-08T04:33:01.158Z,0
2017-10-08T04:34:01.480Z,0
2017-10-08T04:35:01.185Z,0
2017-10-08T04:36:01.194Z,0
2017-10-08T04:37:01.224Z,0
2017-10-08T04:38:01.244Z,0
2017-10-08T04:39:01.258Z,0
2017-10-08T04:40:01.273Z,0
2017-10-08T04:41:01.597Z,0
2017-10-08T04:42:01.362Z,0
2017-10-08T04:43:01.317Z,0
2017-10-08T04:44:01.342Z,0
2017-10-08T04:45:01.358Z,0
2017-10-08T04:46:01.383Z,0
2017-10-08T04:47:01.388Z,0
2017-10-08T04:48:01.408Z,0
2017-10-08T04:49:01.432Z,0
2017-10-08T04:50:01.752Z,0
2017-10-08T04:51:01.765Z,0
2017-10-08T04:52:01.795Z,0
2017-10-08T04:53:01.497Z,0
2017-10-08T04:54:01.820Z,0
2017-10-08T04:55:01.536Z,0
2017-10-08T04:56:01.560Z,0
2017-10-08T04:57:01.557Z,0
2017-10-08T04:58:01.628Z,0
2017-10-08T04:59:01.595Z,0
2017-10-08T05:00:01.612Z,0
2017-10-08T05:01:01.634Z,0
2017-10-08T05:02:01.646Z,0
2017-10-08T05:03:01.661Z,0
2017-10-08T05:04:01.700Z,0
2017-10-08T05:05:01.692Z,0
2017-10-08T05:06:01.713Z,0
2017-10-08T05:07:01.738Z,0
2017-10-08T05:08:01.756Z,0
2017-10-08T05:09:01.782Z,0
2017-10-08T05:10:01.786Z,0
2017-10-08T05:11:01.796Z,0
2017-10-08T05:12:01.817Z,0
2017-10-08T05:13:01.836Z,0
2017-10-08T05:14:02.222Z,0
2017-10-08T05:15:01.866Z,0
2017-10-08T05:16:02.197Z,0
2017-10-08T05:17:01.900Z,0
2017-10-08T05:18:02.222Z,0
2017-10-08T05:19:01.929Z,0
2017-10-08T05:20:01.953Z,0
2017-10-08T05:21:01.980Z,0
2017-10-08T05:22:01.989Z,0
2017-10-08T05:23:02.001Z,0
2017-10-08T05:24:02.021Z,0
2017-10-08T05:25:02.040Z,0
2017-10-08T05:26:02.059Z,0
2017-10-08T05:27:02.071Z,0
2017-10-08T05:28:02.401Z,0
2017-10-08T05:29:02.159Z,0
2017-10-08T05:30:02.440Z,0
2017-10-08T05:31:02.448Z,0
2017-10-08T05:32:02.176Z,0
2017-10-08T05:33:02.175Z,0
2017-10-08T05:34:02.191Z,0
2017-10-08T05:35:02.217Z,0
2017-10-08T05:36:02.224Z,0
2017-10-08T05:37:02.249Z,0
2017-10-08T05:38:02.259Z,0
2017-10-08T05:39:02.282Z,0
2017-10-08T05:40:02.293Z,0
2017-10-08T05:41:02.334Z,0
2017-10-08T05:42:02.331Z,0
2017-10-08T05:43:02.347Z,5
2017-10-08T05:44:02.688Z,5
2017-10-08T05:45:02.376Z,5
2017-10-08T05:46:02.445Z,5
2017-10-08T05:47:02.417Z,5
2017-10-08T05:48:02.433Z,5
2017-10-08T05:49:02.455Z,5
2017-10-08T05:50:02.464Z,5
2017-10-08T05:51:02.478Z,5
2017-10-08T05:52:02.497Z,5
2017-10-08T05:53:02.521Z,5
2017-10-08T05:54:02.541Z,5
2017-10-08T05:55:02.573Z,5
2017-10-08T05:56:02.890Z,10
2017-10-08T05:57:02.598Z,10
2017-10-08T05:58:02.624Z,10
2017-10-08T05:59:02.620Z,10
2017-10-08T06:00:02.956Z,10
2017-10-08T06:01:02.701Z,10
2017-10-08T06:02:02.675Z,15
2017-10-08T06:03:02.697Z,15
2017-10-08T06:04:02.736Z,10
2017-10-08T06:05:02.722Z,10
2017-10-08T06:06:02.736Z,10
2017-10-08T06:07:02.760Z,10
2017-10-08T06:08:02.789Z,10
2017-10-08T06:09:02.812Z,15
2017-10-08T06:10:02.813Z,15
2017-10-08T06:11:02.826Z,15
2017-10-08T06:12:03.166Z,15
2017-10-08T06:13:03.174Z,15
2017-10-08T06:14:02.887Z,15
2017-10-08T06:15:03.208Z,20
2017-10-08T06:16:03.593Z,20
2017-10-08T06:17:02.928Z,20
2017-10-08T06:18:02.968Z,20
2017-10-08T06:19:02.965Z,20
2017-10-08T06:20:02.980Z,20
2017-10-08T06:21:02.998Z,20
2017-10-08T06:22:03.017Z,20
2017-10-08T06:23:03.055Z,20
2017-10-08T06:24:03.051Z,20
2017-10-08T06:25:03.063Z,25
2017-10-08T06:26:03.084Z,20
2017-10-08T06:27:03.105Z,20
2017-10-08T06:28:03.118Z,20
2017-10-08T06:29:03.134Z,25
2017-10-08T06:30:03.469Z,25
2017-10-08T06:31:03.217Z,25
2017-10-08T06:32:03.835Z,25
2017-10-08T06:33:03.211Z,25
2017-10-08T06:34:03.220Z,25
2017-10-08T06:35:03.247Z,25
2017-10-08T06:36:03.260Z,25
2017-10-08T06:37:03.274Z,25
2017-10-08T06:38:04.300Z,30
2017-10-08T06:39:03.631Z,30
2017-10-08T06:40:03.642Z,30
2017-10-08T06:41:03.343Z,30
2017-10-08T06:42:04.008Z,30
2017-10-08T06:43:03.381Z,30
2017-10-08T06:44:03.450Z,30
2017-10-08T06:45:03.418Z,30
2017-10-08T06:46:03.483Z,30
2017-10-08T06:47:03.452Z,30
2017-10-08T06:48:03.462Z,35
2017-10-08T06:49:03.487Z,35
2017-10-08T06:50:03.500Z,30
2017-10-08T06:51:03.839Z,30
2017-10-08T06:52:03.539Z,35
2017-10-08T06:53:03.589Z,35
2017-10-08T06:54:03.895Z,35
2017-10-08T06:55:03.908Z,35
2017-10-08T06:56:03.999Z,35
2017-10-08T06:57:03.625Z,30
2017-10-08T06:58:03.643Z,30
2017-10-08T06:59:03.653Z,30
2017-10-08T07:00:04.037Z,30
2017-10-08T07:01:03.695Z,35
2017-10-08T07:02:04.019Z,35
2017-10-08T07:03:03.719Z,35
2017-10-08T07:04:03.771Z,40
2017-10-08T07:05:03.761Z,40
2017-10-08T07:06:03.779Z,45
2017-10-08T07:07:03.800Z,50
2017-10-08T07:08:04.136Z,50
2017-10-08T07:09:04.239Z,55
2017-10-08T07:10:03.845Z,55
2017-10-08T07:11:03.894Z,55
2017-10-08T07:12:03.880Z,55
2017-10-08T07:13:03.895Z,55
2017-10-08T07:14:03.925Z,55
2017-10-08T07:15:03.941Z,65
2017-10-08T07:16:04.275Z,70
2017-10-08T07:17:04.333Z,70
2017-10-08T07:18:04.317Z,70
2017-10-08T07:19:04.694Z,70
2017-10-08T07:20:04.018Z,75
2017-10-08T07:21:04.088Z,80
2017-10-08T07:22:04.060Z,85
2017-10-08T07:23:04.397Z,95
2017-10-08T07:24:04.085Z,100
2017-10-08T07:25:04.112Z,100
2017-10-08T07:26:04.128Z,95
2017-10-08T07:27:04.150Z,95
2017-10-08T07:28:04.165Z,95
2017-10-08T07:29:04.179Z,95
2017-10-08T07:30:04.220Z,100
2017-10-08T07:31:04.220Z,95
2017-10-08T07:32:04.241Z,95
2017-10-08T07:33:04.248Z,105
2017-10-08T07:34:04.597Z,110
2017-10-08T07:35:04.600Z,120
2017-10-08T07:36:04.355Z,135
2017-10-08T07:37:04.329Z,140
2017-10-08T07:38:04.342Z,145
2017-10-08T07:39:04.405Z,140
2017-10-08T07:40:04.460Z,135
2017-10-08T07:41:04.720Z,130
2017-10-08T07:42:04.410Z,120
2017-10-08T07:43:04.430Z,110
2017-10-08T07:44:04.446Z,110
2017-10-08T07:45:04.472Z,110
2017-10-08T07:46:04.486Z,115
2017-10-08T07:47:04.496Z,120
2017-10-08T07:48:04.519Z,120
2017-10-08T07:49:04.873Z,125
2017-10-08T07:50:04.886Z,125
2017-10-08T07:51:04.705Z,125
2017-10-08T07:52:04.588Z,125
2017-10-08T07:53:04.600Z,115
2017-10-08T07:54:04.621Z,105
2017-10-08T07:55:04.642Z,90
2017-10-08T07:56:04.971Z,85
2017-10-08T07:57:04.672Z,85
2017-10-08T07:58:04.992Z,85
2017-10-08T07:59:04.712Z,100
2017-10-08T08:00:04.792Z,110
2017-10-08T08:01:04.761Z,105
2017-10-08T08:02:05.154Z,110
2017-10-08T08:03:04.773Z,115
2017-10-08T08:04:04.795Z,125
2017-10-08T08:05:04.817Z,130
2017-10-08T08:06:04.831Z,145
2017-10-08T08:07:05.212Z,140
2017-10-08T08:08:04.877Z,120
2017-10-08T08:09:04.893Z,105
2017-10-08T08:10:04.937Z,105
2017-10-08T08:11:04.927Z,105
2017-10-08T08:12:05.013Z,110
2017-10-08T08:13:05.033Z,105
2017-10-08T08:14:04.975Z,105
2017-10-08T08:15:05.006Z,110
2017-10-08T08:16:05.006Z,115
2017-10-08T08:17:05.344Z,120
2017-10-08T08:18:05.044Z,120
2017-10-08T08:19:05.067Z,125
2017-10-08T08:20:05.148Z,125
2017-10-08T08:21:05.105Z,135
2017-10-08T08:22:05.190Z,145
2017-10-08T08:23:05.448Z,140
2017-10-08T08:24:05.164Z,150
2017-10-08T08:25:05.271Z,155
2017-10-08T08:26:05.201Z,145
2017-10-08T08:27:05.208Z,145
2017-10-08T08:28:05.539Z,140
2017-10-08T08:29:05.248Z,150
2017-10-08T08:30:05.575Z,165
2017-10-08T08:31:05.926Z,160
2017-10-08T08:32:05.608Z,145
2017-10-08T08:33:05.394Z,140
2017-10-08T08:34:05.340Z,140
2017-10-08T08:35:05.351Z,140
2017-10-08T08:36:05.680Z,150
2017-10-08T08:37:05.388Z,150
2017-10-08T08:38:05.411Z,150
2017-10-08T08:39:05.458Z,140
2017-10-08T08:40:05.497Z,135
2017-10-08T08:41:05.463Z,130
2017-10-08T08:42:05.481Z,130
2017-10-08T08:43:05.498Z,135
2017-10-08T08:44:05.531Z,140
2017-10-08T08:45:05.537Z,145
2017-10-08T08:46:05.560Z,140
2017-10-08T08:47:05.593Z,155
2017-10-08T08:48:05.585Z,150
2017-10-08T08:49:05.607Z,150
2017-10-08T08:50:05.653Z,150
2017-10-08T08:51:05.956Z,145
2017-10-08T08:52:05.670Z,155
2017-10-08T08:53:06.003Z,170
2017-10-08T08:54:05.762Z,170
2017-10-08T08:55:05.781Z,180
2017-10-08T08:56:05.731Z,170
2017-10-08T08:57:05.752Z,155
2017-10-08T08:58:05.782Z,150
2017-10-08T08:59:05.795Z,165
2017-10-08T09:00:05.814Z,155
2017-10-08T09:01:05.830Z,160
2017-10-08T09:02:06.163Z,180
2017-10-08T09:03:05.868Z,170
2017-10-08T09:04:06.204Z,165
2017-10-08T09:05:06.362Z,170
2017-10-08T09:06:05.935Z,180
2017-10-08T09:07:05.948Z,175
2017-10-08T09:08:05.968Z,170
2017-10-08T09:09:05.991Z,165
2017-10-08T09:10:06.071Z,170
2017-10-08T09:11:06.078Z,195
2017-10-08T09:12:06.346Z,205
2017-10-08T09:13:06.368Z,205
2017-10-08T09:14:06.068Z,215
2017-10-08T09:15:06.093Z,220
2017-10-08T09:16:06.111Z,215
2017-10-08T09:17:06.438Z,210
2017-10-08T09:18:06.153Z,195
2017-10-08T09:19:06.167Z,175
2017-10-08T09:20:06.188Z,170
2017-10-08T09:21:06.209Z,160
2017-10-08T09:22:06.337Z,155
2017-10-08T09:23:06.549Z,150
2017-10-08T09:24:06.262Z,160
2017-10-08T09:25:06.281Z,170
2017-10-08T09:26:06.404Z,160
2017-10-08T09:27:06.373Z,205
2017-10-08T09:28:06.335Z,250
2017-10-08T09:29:06.355Z,260
2017-10-08T09:30:06.381Z,250
2017-10-08T09:31:06.397Z,245
2017-10-08T09:32:06.422Z,220
2017-10-08T09:33:06.915Z,210
2017-10-08T09:34:06.455Z,215
2017-10-08T09:35:06.538Z,255
2017-10-08T09:36:06.501Z,270
2017-10-08T09:37:06.514Z,265
2017-10-08T09:38:06.854Z,255
2017-10-08T09:39:06.552Z,245
2017-10-08T09:40:06.568Z,230
2017-10-08T09:41:06.592Z,220
2017-10-08T09:42:06.656Z,220
2017-10-08T09:43:06.626Z,205
2017-10-08T09:44:06.735Z,195
2017-10-08T09:45:06.972Z,180
2017-10-08T09:46:06.717Z,175
2017-10-08T09:47:07.019Z,165
2017-10-08T09:48:07.059Z,155
2017-10-08T09:49:07.054Z,155
2017-10-08T09:50:07.204Z,140
2017-10-08T09:51:06.778Z,120
2017-10-08T09:52:06.798Z,130
2017-10-08T09:53:07.140Z,145
2017-10-08T09:54:07.152Z,150
2017-10-08T09:55:07.330Z,155
2017-10-08T09:56:06.883Z,145
2017-10-08T09:57:07.093Z,145
2017-10-08T09:58:06.923Z,150
2017-10-08T09:59:07.281Z,135
2017-10-08T10:00:06.958Z,150
2017-10-08T10:01:06.977Z,180
2017-10-08T10:02:07.314Z,200
2017-10-08T10:03:07.018Z,205
2017-10-08T10:04:07.036Z,225
2017-10-08T10:05:07.049Z,230
2017-10-08T10:06:07.071Z,235
2017-10-08T10:07:07.332Z,215
2017-10-08T10:08:07.112Z,200
2017-10-08T10:09:07.156Z,205
2017-10-08T10:10:07.774Z,225
2017-10-08T10:11:07.164Z,235
2017-10-08T10:12:07.183Z,240
2017-10-08T10:13:07.210Z,230
2017-10-08T10:14:07.239Z,215
2017-10-08T10:15:07.247Z,200
2017-10-08T10:16:07.266Z,220
2017-10-08T10:17:07.282Z,245
2017-10-08T10:18:07.467Z,235
2017-10-08T10:19:07.320Z,215
2017-10-08T10:20:07.355Z,180
2017-10-08T10:21:07.368Z,175
2017-10-08T10:22:07.699Z,185
2017-10-08T10:23:08.032Z,175
2017-10-08T10:24:07.417Z,175
2017-10-08T10:25:07.458Z,155
2017-10-08T10:26:07.458Z,145
2017-10-08T10:27:07.529Z,140
2017-10-08T10:28:07.571Z,140
2017-10-08T10:29:07.849Z,155
2017-10-08T10:30:07.543Z,170
2017-10-08T10:31:07.873Z,175
2017-10-08T10:32:07.898Z,175
2017-10-08T10:33:07.608Z,175
2017-10-08T10:34:07.930Z,180
2017-10-08T10:35:08.035Z,195
2017-10-08T10:36:07.973Z,210
2017-10-08T10:37:07.692Z,235
2017-10-08T10:38:08.016Z,260
2017-10-08T10:39:07.725Z,240
2017-10-08T10:40:08.109Z,230
2017-10-08T10:41:07.757Z,210
2017-10-08T10:42:07.789Z,215
2017-10-08T10:43:07.793Z,215
2017-10-08T10:44:07.816Z,220
2017-10-08T10:45:08.227Z,200
2017-10-08T10:46:07.840Z,195
2017-10-08T10:47:07.875Z,205
2017-10-08T10:48:07.890Z,200
2017-10-08T10:49:07.903Z,170
2017-10-08T10:50:07.927Z,155
2017-10-08T10:51:07.946Z,160
2017-10-08T10:52:07.966Z,155
2017-10-08T10:53:08.303Z,145
2017-10-08T10:54:08.012Z,135
2017-10-08T10:55:08.031Z,135
2017-10-08T10:56:08.049Z,145
2017-10-08T10:57:08.168Z,155
2017-10-08T10:58:08.186Z,160
2017-10-08T10:59:08.677Z,170
2017-10-08T11:00:08.191Z,180
2017-10-08T11:01:08.450Z,170
2017-10-08T11:02:08.161Z,165
2017-10-08T11:03:08.185Z,170
2017-10-08T11:04:08.200Z,165
2017-10-08T11:05:08.226Z,170
2017-10-08T11:06:08.261Z,155
2017-10-08T11:07:08.260Z,135
2017-10-08T11:08:08.291Z,125
2017-10-08T11:09:08.674Z,130
2017-10-08T11:10:08.361Z,130
2017-10-08T11:11:08.416Z,120
2017-10-08T11:12:09.004Z,125
2017-10-08T11:13:08.375Z,135
2017-10-08T11:14:08.394Z,130
2017-10-08T11:15:08.436Z,125
2017-10-08T11:16:08.755Z,120
2017-10-08T11:17:08.534Z,105
2017-10-08T11:18:08.565Z,95
2017-10-08T11:19:08.557Z,90
2017-10-08T11:20:08.571Z,95
2017-10-08T11:21:08.548Z,100
2017-10-08T11:22:08.695Z,100
2017-10-08T11:23:08.592Z,105
2017-10-08T11:24:08.668Z,110
2017-10-08T11:25:08.603Z,115
2017-10-08T11:26:08.941Z,115
2017-10-08T11:27:09.237Z,110
2017-10-08T11:28:08.667Z,105
2017-10-08T11:29:08.697Z,105
2017-10-08T11:30:08.714Z,95
2017-10-08T11:31:08.725Z,85
2017-10-08T11:32:08.832Z,90
2017-10-08T11:33:08.762Z,90
2017-10-08T11:34:08.825Z,95
2017-10-08T11:35:08.806Z,95
2017-10-08T11:36:08.867Z,90
2017-10-08T11:37:09.200Z,90
2017-10-08T11:38:08.968Z,100
2017-10-08T11:39:09.215Z,95
2017-10-08T11:40:08.985Z,90
2017-10-08T11:41:08.920Z,95
2017-10-08T11:42:08.942Z,95
2017-10-08T11:43:09.399Z,90
2017-10-08T11:44:08.980Z,95
2017-10-08T11:45:11.136Z,100
2017-10-08T11:46:09.072Z,105
2017-10-08T11:47:09.337Z,105
2017-10-08T11:48:09.084Z,105
2017-10-08T11:49:09.166Z,100
2017-10-08T11:50:09.113Z,100
2017-10-08T11:51:09.115Z,95
2017-10-08T11:52:09.445Z,100
2017-10-08T11:53:09.162Z,105
2017-10-08T11:54:09.293Z,115
2017-10-08T11:55:09.205Z,120
2017-10-08T11:56:09.205Z,110
2017-10-08T11:57:09.237Z,105
2017-10-08T11:58:09.776Z,95
2017-10-08T11:59:09.581Z,105
2017-10-08T12:00:09.317Z,110
2017-10-08T12:01:09.472Z,120
2017-10-08T12:02:09.638Z,130
2017-10-08T12:03:09.361Z,140
2017-10-08T12:04:09.381Z,145
2017-10-08T12:05:09.612Z,145
2017-10-08T12:06:09.399Z,155
2017-10-08T12:07:09.428Z,170
2017-10-08T12:08:09.441Z,190
2017-10-08T12:09:09.462Z,210
2017-10-08T12:10:09.494Z,225
2017-10-08T12:11:09.684Z,220
2017-10-08T12:12:09.551Z,220
2017-10-08T12:13:09.536Z,195
2017-10-08T12:14:09.568Z,185
2017-10-08T12:15:09.833Z,180
2017-10-08T12:16:09.919Z,185
2017-10-08T12:17:09.622Z,185
2017-10-08T12:18:09.642Z,180
2017-10-08T12:19:09.663Z,175
2017-10-08T12:20:09.839Z,160
2017-10-08T12:21:09.703Z,150
2017-10-08T12:22:10.103Z,135
2017-10-08T12:23:09.831Z,130
2017-10-08T12:24:09.763Z,130
2017-10-08T12:25:09.784Z,125
2017-10-08T12:26:09.804Z,115
2017-10-08T12:27:09.826Z,110
2017-10-08T12:28:10.156Z,105
2017-10-08T12:29:09.857Z,100
2017-10-08T12:30:09.885Z,95
2017-10-08T12:31:10.227Z,95
2017-10-08T12:32:09.936Z,90
2017-10-08T12:33:10.061Z,95
2017-10-08T12:34:10.296Z,90
2017-10-08T12:35:09.980Z,80
2017-10-08T12:36:10.007Z,80
2017-10-08T12:37:10.026Z,80
2017-10-08T12:38:10.099Z,80
2017-10-08T12:39:10.399Z,80
2017-10-08T12:40:10.103Z,80
2017-10-08T12:41:10.102Z,80
2017-10-08T12:42:10.120Z,80
2017-10-08T12:43:10.150Z,75
2017-10-08T12:44:10.159Z,75
2017-10-08T12:45:10.925Z,75
2017-10-08T12:46:10.515Z,70
2017-10-08T12:47:10.222Z,70
2017-10-08T12:48:10.241Z,70
2017-10-08T12:49:10.379Z,75
2017-10-08T12:50:10.281Z,80
2017-10-08T12:51:10.361Z,80
2017-10-08T12:52:10.379Z,80
2017-10-08T12:53:10.474Z,80
2017-10-08T12:54:10.457Z,80
2017-10-08T12:55:10.713Z,90
2017-10-08T12:56:10.463Z,95
2017-10-08T12:57:10.750Z,85
2017-10-08T12:58:11.091Z,80
2017-10-08T12:59:10.467Z,80
2017-10-08T13:00:10.476Z,85
2017-10-08T13:01:10.508Z,85
2017-10-08T13:02:10.844Z,90
2017-10-08T13:03:11.692Z,85
2017-10-08T13:04:11.651Z,90
2017-10-08T13:05:11.410Z,80
2017-10-08T13:06:11.382Z,80
2017-10-08T13:07:11.441Z,75
2017-10-08T13:08:11.724Z,80
2017-10-08T13:09:11.195Z,80
2017-10-08T13:10:10.929Z,90
2017-10-08T13:11:10.803Z,110
2017-10-08T13:12:11.126Z,130
2017-10-08T13:13:11.461Z,150
2017-10-08T13:14:11.610Z,155
2017-10-08T13:15:12.268Z,165
2017-10-08T13:16:11.908Z,175
2017-10-08T13:17:12.132Z,175
2017-10-08T13:18:11.961Z,180
2017-10-08T13:19:11.633Z,180
2017-10-08T13:20:11.451Z,180
2017-10-08T13:21:11.742Z,165
2017-10-08T13:22:11.769Z,150
2017-10-08T13:23:10.984Z,145
2017-10-08T13:24:12.476Z,140
2017-10-08T13:25:12.099Z,145
2017-10-08T13:26:11.820Z,160
2017-10-08T13:27:11.379Z,180
2017-10-08T13:28:12.119Z,170
2017-10-08T13:29:11.354Z,150
2017-10-08T13:30:11.373Z,135
2017-10-08T13:31:11.452Z,125
2017-10-08T13:32:11.128Z,135
2017-10-08T13:33:11.126Z,145
2017-10-08T13:34:11.145Z,150
2017-10-08T13:35:11.261Z,140
2017-10-08T13:36:11.364Z,150
2017-10-08T13:37:11.303Z,170
2017-10-08T13:38:11.222Z,185
2017-10-08T13:39:11.256Z,165
2017-10-08T13:40:11.259Z,155
2017-10-08T13:41:11.342Z,140
2017-10-08T13:42:11.698Z,125
2017-10-08T13:43:12.038Z,110
2017-10-08T13:44:11.353Z,100
2017-10-08T13:45:11.403Z,90
2017-10-08T13:46:12.031Z,90
2017-10-08T13:47:11.805Z,100
2017-10-08T13:48:11.429Z,115
2017-10-08T13:49:11.781Z,120
2017-10-08T13:50:11.888Z,110
2017-10-08T13:51:11.880Z,105
2017-10-08T13:52:11.503Z,100
2017-10-08T13:53:11.708Z,110
2017-10-08T13:54:11.651Z,125
2017-10-08T13:55:11.612Z,140
2017-10-08T13:56:11.597Z,145
2017-10-08T13:57:11.600Z,145
2017-10-08T13:58:12.077Z,140
2017-10-08T13:59:11.645Z,135
2017-10-08T14:00:11.677Z,115
2017-10-08T14:01:11.713Z,105
2017-10-08T14:02:11.703Z,110
2017-10-08T14:03:11.726Z,105
2017-10-08T14:04:11.870Z,100
2017-10-08T14:05:12.079Z,95
2017-10-08T14:06:11.874Z,85
2017-10-08T14:07:11.796Z,75
2017-10-08T14:08:11.818Z,75
2017-10-08T14:09:11.895Z,90
2017-10-08T14:10:11.865Z,110
2017-10-08T14:11:14.090Z,130
2017-10-08T14:12:16.154Z,155
2017-10-08T14:13:11.917Z,175
2017-10-08T14:14:11.937Z,195
2017-10-08T14:15:15.608Z,200
2017-10-08T14:16:14.975Z,195
2017-10-08T14:17:15.575Z,175